sensor_id;sensor_type;location;lat;lon;timestamp;P1;durP1;ratioP1;P2;durP2;ratioP2
19113;SDS011;9689;51.052;13.772;2023-11-19T00:01:17;17.63;;;8.05;;
19113;SDS011;9689;51.052;13.772;2023-11-19T00:06:19;18.38;;;9.02;;
19113;SDS011;9689;51.052;13.772;2023-11-19T00:11:21;19.30;;;10.10;;
19113;SDS011;9689;51.052;13.772;2023-11-19T00:16:23;22.10;;;10.25;;
19113;SDS011;9689;51.052;13.772;2023-11-19T00:21:24;16.13;;;9.63;;
19113;SDS011;9689;51.052;13.772;2023-11-19T00:26:30;19.33;;;10.23;;
19113;SDS011;9689;51.052;13.772;2023-11-19T00:31:32;22.70;;;11.05;;
19113;SDS011;9689;51.052;13.772;2023-11-19T00:36:33;19.67;;;9.75;;
19113;SDS011;9689;51.052;13.772;2023-11-19T00:41:36;17.27;;;9.90;;
19113;SDS011;9689;51.052;13.772;2023-11-19T00:46:37;20.67;;;10.02;;
19113;SDS011;9689;51.052;13.772;2023-11-19T00:51:38;18.77;;;9.63;;
19113;SDS011;9689;51.052;13.772;2023-11-19T00:56:41;17.50;;;8.73;;
19113;SDS011;9689;51.052;13.772;2023-11-19T01:01:43;16.80;;;8.95;;
19113;SDS011;9689;51.052;13.772;2023-11-19T01:06:44;16.52;;;9.55;;
19113;SDS011;9689;51.052;13.772;2023-11-19T01:11:50;16.25;;;9.73;;
19113;SDS011;9689;51.052;13.772;2023-11-19T01:16:51;15.13;;;7.93;;
19113;SDS011;9689;51.052;13.772;2023-11-19T01:21:54;14.80;;;8.63;;
19113;SDS011;9689;51.052;13.772;2023-11-19T01:26:57;13.88;;;8.00;;
19113;SDS011;9689;51.052;13.772;2023-11-19T01:31:59;13.18;;;7.75;;
19113;SDS011;9689;51.052;13.772;2023-11-19T01:37:01;15.65;;;7.80;;
19113;SDS011;9689;51.052;13.772;2023-11-19T01:42:03;13.88;;;6.82;;
19113;SDS011;9689;51.052;13.772;2023-11-19T01:47:04;11.23;;;5.97;;
19113;SDS011;9689;51.052;13.772;2023-11-19T01:52:06;8.60;;;5.43;;
19113;SDS011;9689;51.052;13.772;2023-11-19T01:57:09;8.85;;;5.65;;
19113;SDS011;9689;51.052;13.772;2023-11-19T02:02:10;8.65;;;5.18;;
19113;SDS011;9689;51.052;13.772;2023-11-19T02:07:12;6.30;;;4.55;;
19113;SDS011;9689;51.052;13.772;2023-11-19T02:12:15;9.68;;;5.13;;
19113;SDS011;9689;51.052;13.772;2023-11-19T02:17:25;7.47;;;4.63;;
19113;SDS011;9689;51.052;13.772;2023-11-19T02:22:27;8.18;;;4.72;;
19113;SDS011;9689;51.052;13.772;2023-11-19T02:27:31;8.30;;;4.53;;
19113;SDS011;9689;51.052;13.772;2023-11-19T02:32:41;5.53;;;3.60;;
19113;SDS011;9689;51.052;13.772;2023-11-19T02:37:42;7.22;;;4.28;;
19113;SDS011;9689;51.052;13.772;2023-11-19T02:42:45;4.82;;;2.90;;
19113;SDS011;9689;51.052;13.772;2023-11-19T02:47:46;4.72;;;3.00;;
19113;SDS011;9689;51.052;13.772;2023-11-19T02:52:47;4.50;;;3.08;;
19113;SDS011;9689;51.052;13.772;2023-11-19T02:57:49;4.50;;;2.50;;
19113;SDS011;9689;51.052;13.772;2023-11-19T03:02:52;3.75;;;2.22;;
19113;SDS011;9689;51.052;13.772;2023-11-19T03:08:00;5.32;;;2.80;;
19113;SDS011;9689;51.052;13.772;2023-11-19T03:13:02;4.20;;;2.80;;
19113;SDS011;9689;51.052;13.772;2023-11-19T03:18:03;3.38;;;2.42;;
19113;SDS011;9689;51.052;13.772;2023-11-19T03:23:04;4.45;;;2.35;;
19113;SDS011;9689;51.052;13.772;2023-11-19T03:28:06;3.58;;;2.40;;
19113;SDS011;9689;51.052;13.772;2023-11-19T03:33:07;4.00;;;2.40;;
19113;SDS011;9689;51.052;13.772;2023-11-19T03:38:08;6.05;;;2.15;;
19113;SDS011;9689;51.052;13.772;2023-11-19T03:43:10;2.88;;;1.90;;
19113;SDS011;9689;51.052;13.772;2023-11-19T03:48:12;3.22;;;1.98;;
19113;SDS011;9689;51.052;13.772;2023-11-19T03:53:15;3.83;;;2.45;;
19113;SDS011;9689;51.052;13.772;2023-11-19T03:58:19;4.53;;;3.20;;
19113;SDS011;9689;51.052;13.772;2023-11-19T04:03:20;7.68;;;3.00;;
19113;SDS011;9689;51.052;13.772;2023-11-19T04:08:21;5.10;;;2.85;;
19113;SDS011;9689;51.052;13.772;2023-11-19T04:13:23;6.43;;;2.97;;
19113;SDS011;9689;51.052;13.772;2023-11-19T04:18:24;6.35;;;3.95;;
19113;SDS011;9689;51.052;13.772;2023-11-19T04:23:25;11.15;;;3.83;;
19113;SDS011;9689;51.052;13.772;2023-11-19T04:28:27;6.45;;;3.80;;
19113;SDS011;9689;51.052;13.772;2023-11-19T04:33:28;7.18;;;4.38;;
19113;SDS011;9689;51.052;13.772;2023-11-19T04:38:29;6.70;;;3.80;;
19113;SDS011;9689;51.052;13.772;2023-11-19T04:43:31;7.53;;;4.32;;
19113;SDS011;9689;51.052;13.772;2023-11-19T04:48:32;6.00;;;3.83;;
19113;SDS011;9689;51.052;13.772;2023-11-19T04:53:36;6.10;;;3.70;;
19113;SDS011;9689;51.052;13.772;2023-11-19T04:58:38;9.18;;;4.30;;
19113;SDS011;9689;51.052;13.772;2023-11-19T05:03:39;6.60;;;4.25;;
19113;SDS011;9689;51.052;13.772;2023-11-19T05:08:40;7.80;;;4.85;;
19113;SDS011;9689;51.052;13.772;2023-11-19T05:13:42;7.45;;;4.82;;
19113;SDS011;9689;51.052;13.772;2023-11-19T05:18:44;9.27;;;4.53;;
19113;SDS011;9689;51.052;13.772;2023-11-19T05:23:45;9.27;;;5.07;;
19113;SDS011;9689;51.052;13.772;2023-11-19T05:28:47;8.57;;;4.88;;
19113;SDS011;9689;51.052;13.772;2023-11-19T05:33:48;8.63;;;4.88;;
19113;SDS011;9689;51.052;13.772;2023-11-19T05:38:50;13.38;;;6.30;;
19113;SDS011;9689;51.052;13.772;2023-11-19T05:43:52;8.50;;;5.68;;
19113;SDS011;9689;51.052;13.772;2023-11-19T05:48:53;10.90;;;6.43;;
19113;SDS011;9689;51.052;13.772;2023-11-19T05:53:54;11.80;;;6.53;;
19113;SDS011;9689;51.052;13.772;2023-11-19T05:58:56;11.32;;;6.80;;
19113;SDS011;9689;51.052;13.772;2023-11-19T06:03:57;14.75;;;7.15;;
19113;SDS011;9689;51.052;13.772;2023-11-19T06:08:58;11.65;;;6.97;;
19113;SDS011;9689;51.052;13.772;2023-11-19T06:14:13;9.65;;;6.38;;
19113;SDS011;9689;51.052;13.772;2023-11-19T06:19:14;11.45;;;6.82;;
19113;SDS011;9689;51.052;13.772;2023-11-19T06:24:14;11.43;;;6.47;;
19113;SDS011;9689;51.052;13.772;2023-11-19T06:29:16;9.77;;;5.90;;
19113;SDS011;9689;51.052;13.772;2023-11-19T06:34:19;13.52;;;6.38;;
19113;SDS011;9689;51.052;13.772;2023-11-19T06:39:19;9.23;;;5.78;;
19113;SDS011;9689;51.052;13.772;2023-11-19T06:44:22;11.25;;;5.65;;
19113;SDS011;9689;51.052;13.772;2023-11-19T06:49:24;9.10;;;5.38;;
19113;SDS011;9689;51.052;13.772;2023-11-19T06:54:25;8.23;;;4.45;;
19113;SDS011;9689;51.052;13.772;2023-11-19T06:59:27;7.15;;;4.45;;
19113;SDS011;9689;51.052;13.772;2023-11-19T07:04:28;5.60;;;3.67;;
19113;SDS011;9689;51.052;13.772;2023-11-19T07:09:29;5.05;;;3.17;;
19113;SDS011;9689;51.052;13.772;2023-11-19T07:14:31;6.90;;;3.50;;
19113;SDS011;9689;51.052;13.772;2023-11-19T07:19:32;6.15;;;3.08;;
19113;SDS011;9689;51.052;13.772;2023-11-19T07:24:34;4.07;;;2.83;;
19113;SDS011;9689;51.052;13.772;2023-11-19T07:29:36;5.18;;;3.13;;
19113;SDS011;9689;51.052;13.772;2023-11-19T07:34:37;4.78;;;2.88;;
19113;SDS011;9689;51.052;13.772;2023-11-19T07:39:39;4.68;;;2.60;;
19113;SDS011;9689;51.052;13.772;2023-11-19T07:44:42;6.40;;;3.03;;
19113;SDS011;9689;51.052;13.772;2023-11-19T07:49:43;5.50;;;3.50;;
19113;SDS011;9689;51.052;13.772;2023-11-19T07:54:44;5.85;;;3.33;;
19113;SDS011;9689;51.052;13.772;2023-11-19T07:59:46;4.75;;;2.90;;
19113;SDS011;9689;51.052;13.772;2023-11-19T08:04:47;4.05;;;2.85;;
19113;SDS011;9689;51.052;13.772;2023-11-19T08:09:51;3.47;;;2.50;;
19113;SDS011;9689;51.052;13.772;2023-11-19T08:14:53;7.07;;;3.28;;
19113;SDS011;9689;51.052;13.772;2023-11-19T08:19:54;4.55;;;3.03;;
19113;SDS011;9689;51.052;13.772;2023-11-19T08:24:55;7.70;;;3.17;;
19113;SDS011;9689;51.052;13.772;2023-11-19T08:29:57;4.38;;;3.03;;
19113;SDS011;9689;51.052;13.772;2023-11-19T08:34:58;4.95;;;3.30;;
19113;SDS011;9689;51.052;13.772;2023-11-19T08:39:59;5.43;;;3.20;;
19113;SDS011;9689;51.052;13.772;2023-11-19T08:45:01;5.65;;;3.42;;
19113;SDS011;9689;51.052;13.772;2023-11-19T08:50:04;3.42;;;2.78;;
19113;SDS011;9689;51.052;13.772;2023-11-19T08:55:06;3.90;;;2.78;;
19113;SDS011;9689;51.052;13.772;2023-11-19T09:00:11;3.63;;;2.63;;
19113;SDS011;9689;51.052;13.772;2023-11-19T09:05:14;4.28;;;2.95;;
19113;SDS011;9689;51.052;13.772;2023-11-19T09:10:15;4.47;;;3.03;;
19113;SDS011;9689;51.052;13.772;2023-11-19T09:15:17;6.50;;;3.30;;
19113;SDS011;9689;51.052;13.772;2023-11-19T09:20:19;5.95;;;3.00;;
19113;SDS011;9689;51.052;13.772;2023-11-19T09:25:20;4.45;;;2.38;;
19113;SDS011;9689;51.052;13.772;2023-11-19T09:30:22;7.18;;;3.00;;
19113;SDS011;9689;51.052;13.772;2023-11-19T09:35:24;7.13;;;3.35;;
19113;SDS011;9689;51.052;13.772;2023-11-19T09:40:25;7.28;;;3.55;;
19113;SDS011;9689;51.052;13.772;2023-11-19T09:45:29;4.53;;;2.92;;
19113;SDS011;9689;51.052;13.772;2023-11-19T09:50:33;6.90;;;3.03;;
19113;SDS011;9689;51.052;13.772;2023-11-19T09:55:34;4.20;;;3.08;;
19113;SDS011;9689;51.052;13.772;2023-11-19T10:00:37;3.45;;;1.95;;
19113;SDS011;9689;51.052;13.772;2023-11-19T10:05:38;4.78;;;0.95;;
19113;SDS011;9689;51.052;13.772;2023-11-19T10:10:39;3.55;;;1.08;;
19113;SDS011;9689;51.052;13.772;2023-11-19T10:15:41;3.13;;;1.02;;
19113;SDS011;9689;51.052;13.772;2023-11-19T10:20:44;3.75;;;0.80;;
19113;SDS011;9689;51.052;13.772;2023-11-19T10:25:46;5.60;;;0.68;;
19113;SDS011;9689;51.052;13.772;2023-11-19T10:30:48;3.13;;;1.20;;
19113;SDS011;9689;51.052;13.772;2023-11-19T10:35:52;6.30;;;1.20;;
19113;SDS011;9689;51.052;13.772;2023-11-19T10:40:57;6.30;;;1.20;;
19113;SDS011;9689;51.052;13.772;2023-11-19T10:46:10;3.53;;;0.90;;
19113;SDS011;9689;51.052;13.772;2023-11-19T10:51:11;2.22;;;1.02;;
19113;SDS011;9689;51.052;13.772;2023-11-19T10:56:20;2.65;;;1.02;;
19113;SDS011;9689;51.052;13.772;2023-11-19T11:01:29;5.15;;;0.82;;
19113;SDS011;9689;51.052;13.772;2023-11-19T11:06:35;4.35;;;1.10;;
19113;SDS011;9689;51.052;13.772;2023-11-19T11:11:36;6.30;;;1.02;;
19113;SDS011;9689;51.052;13.772;2023-11-19T11:16:38;3.25;;;1.10;;
19113;SDS011;9689;51.052;13.772;2023-11-19T11:21:44;4.53;;;1.13;;
19113;SDS011;9689;51.052;13.772;2023-11-19T11:26:53;2.58;;;0.75;;
19113;SDS011;9689;51.052;13.772;2023-11-19T11:32:16;3.40;;;1.00;;
19113;SDS011;9689;51.052;13.772;2023-11-19T11:37:32;3.40;;;0.68;;
19113;SDS011;9689;51.052;13.772;2023-11-19T11:42:35;2.05;;;0.80;;
19113;SDS011;9689;51.052;13.772;2023-11-19T11:53:16;5.28;;;1.10;;
19113;SDS011;9689;51.052;13.772;2023-11-19T11:58:18;7.25;;;1.15;;
19113;SDS011;9689;51.052;13.772;2023-11-19T12:03:21;3.17;;;1.00;;
19113;SDS011;9689;51.052;13.772;2023-11-19T12:08:24;13.25;;;1.50;;
19113;SDS011;9689;51.052;13.772;2023-11-19T12:13:42;12.43;;;1.38;;
19113;SDS011;9689;51.052;13.772;2023-11-19T12:18:49;4.93;;;1.10;;
19113;SDS011;9689;51.052;13.772;2023-11-19T12:23:50;5.38;;;1.15;;
19113;SDS011;9689;51.052;13.772;2023-11-19T12:28:57;8.73;;;1.50;;
19113;SDS011;9689;51.052;13.772;2023-11-19T12:33:59;13.25;;;2.03;;
19113;SDS011;9689;51.052;13.772;2023-11-19T12:39:00;7.47;;;1.70;;
19113;SDS011;9689;51.052;13.772;2023-11-19T12:44:11;12.63;;;1.58;;
19113;SDS011;9689;51.052;13.772;2023-11-19T12:49:13;9.90;;;1.75;;
19113;SDS011;9689;51.052;13.772;2023-11-19T12:54:14;12.45;;;1.70;;
19113;SDS011;9689;51.052;13.772;2023-11-19T12:59:15;12.02;;;2.28;;
19113;SDS011;9689;51.052;13.772;2023-11-19T13:04:18;6.63;;;1.25;;
19113;SDS011;9689;51.052;13.772;2023-11-19T13:09:22;8.75;;;1.52;;
19113;SDS011;9689;51.052;13.772;2023-11-19T13:14:23;15.98;;;2.10;;
19113;SDS011;9689;51.052;13.772;2023-11-19T13:19:38;7.45;;;1.85;;
19113;SDS011;9689;51.052;13.772;2023-11-19T13:24:39;7.25;;;1.75;;
19113;SDS011;9689;51.052;13.772;2023-11-19T13:29:42;15.55;;;2.83;;
19113;SDS011;9689;51.052;13.772;2023-11-19T13:34:45;13.48;;;2.10;;
19113;SDS011;9689;51.052;13.772;2023-11-19T13:39:46;10.45;;;1.58;;
19113;SDS011;9689;51.052;13.772;2023-11-19T13:44:48;15.88;;;2.30;;
19113;SDS011;9689;51.052;13.772;2023-11-19T13:49:51;12.32;;;1.50;;
19113;SDS011;9689;51.052;13.772;2023-11-19T13:54:52;10.07;;;1.88;;
19113;SDS011;9689;51.052;13.772;2023-11-19T13:59:53;16.45;;;2.97;;
19113;SDS011;9689;51.052;13.772;2023-11-19T14:04:55;9.82;;;2.03;;
19113;SDS011;9689;51.052;13.772;2023-11-19T14:09:57;18.52;;;4.00;;
19113;SDS011;9689;51.052;13.772;2023-11-19T14:14:58;13.13;;;2.40;;
19113;SDS011;9689;51.052;13.772;2023-11-19T14:20:01;17.08;;;2.65;;
19113;SDS011;9689;51.052;13.772;2023-11-19T14:25:04;18.08;;;2.85;;
19113;SDS011;9689;51.052;13.772;2023-11-19T14:30:09;11.50;;;1.95;;
19113;SDS011;9689;51.052;13.772;2023-11-19T14:35:13;13.57;;;2.05;;
19113;SDS011;9689;51.052;13.772;2023-11-19T14:40:14;14.32;;;2.78;;
19113;SDS011;9689;51.052;13.772;2023-11-19T14:45:15;15.68;;;3.25;;
19113;SDS011;9689;51.052;13.772;2023-11-19T14:50:18;14.75;;;2.67;;
19113;SDS011;9689;51.052;13.772;2023-11-19T14:55:19;15.45;;;2.67;;
19113;SDS011;9689;51.052;13.772;2023-11-19T15:00:20;14.00;;;2.35;;
19113;SDS011;9689;51.052;13.772;2023-11-19T15:05:22;13.30;;;2.35;;
19113;SDS011;9689;51.052;13.772;2023-11-19T15:10:24;14.60;;;2.50;;
19113;SDS011;9689;51.052;13.772;2023-11-19T15:15:25;18.13;;;2.97;;
19113;SDS011;9689;51.052;13.772;2023-11-19T15:20:30;13.48;;;2.55;;
19113;SDS011;9689;51.052;13.772;2023-11-19T15:25:31;17.60;;;2.58;;
19113;SDS011;9689;51.052;13.772;2023-11-19T15:30:31;12.85;;;1.88;;
19113;SDS011;9689;51.052;13.772;2023-11-19T15:35:34;10.38;;;2.10;;
19113;SDS011;9689;51.052;13.772;2023-11-19T15:40:34;11.50;;;2.40;;
19113;SDS011;9689;51.052;13.772;2023-11-19T15:45:36;19.67;;;2.67;;
19113;SDS011;9689;51.052;13.772;2023-11-19T15:50:40;20.15;;;2.60;;
19113;SDS011;9689;51.052;13.772;2023-11-19T15:55:43;14.68;;;2.30;;
19113;SDS011;9689;51.052;13.772;2023-11-19T16:00:44;10.13;;;2.35;;
19113;SDS011;9689;51.052;13.772;2023-11-19T16:05:47;13.15;;;1.80;;
19113;SDS011;9689;51.052;13.772;2023-11-19T16:11:06;15.15;;;2.50;;
19113;SDS011;9689;51.052;13.772;2023-11-19T16:16:09;13.07;;;2.40;;
19113;SDS011;9689;51.052;13.772;2023-11-19T16:21:11;10.95;;;2.20;;
19113;SDS011;9689;51.052;13.772;2023-11-19T16:26:12;12.00;;;2.38;;
19113;SDS011;9689;51.052;13.772;2023-11-19T16:31:13;19.00;;;2.75;;
19113;SDS011;9689;51.052;13.772;2023-11-19T16:36:16;17.38;;;2.50;;
19113;SDS011;9689;51.052;13.772;2023-11-19T16:41:18;20.10;;;2.72;;
19113;SDS011;9689;51.052;13.772;2023-11-19T16:46:31;11.07;;;1.52;;
19113;SDS011;9689;51.052;13.772;2023-11-19T16:51:33;15.95;;;2.67;;
19113;SDS011;9689;51.052;13.772;2023-11-19T16:56:34;9.98;;;2.60;;
19113;SDS011;9689;51.052;13.772;2023-11-19T17:01:35;8.38;;;2.25;;
19113;SDS011;9689;51.052;13.772;2023-11-19T17:06:38;12.00;;;2.40;;
19113;SDS011;9689;51.052;13.772;2023-11-19T17:11:39;15.90;;;2.75;;
19113;SDS011;9689;51.052;13.772;2023-11-19T17:16:41;10.77;;;2.10;;
19113;SDS011;9689;51.052;13.772;2023-11-19T17:21:43;11.80;;;2.70;;
19113;SDS011;9689;51.052;13.772;2023-11-19T17:26:44;20.20;;;2.50;;
19113;SDS011;9689;51.052;13.772;2023-11-19T17:31:45;13.52;;;2.13;;
19113;SDS011;9689;51.052;13.772;2023-11-19T17:36:47;12.55;;;2.90;;
19113;SDS011;9689;51.052;13.772;2023-11-19T17:41:48;9.75;;;2.40;;
19113;SDS011;9689;51.052;13.772;2023-11-19T17:46:49;13.20;;;2.63;;
19113;SDS011;9689;51.052;13.772;2023-11-19T17:51:51;11.10;;;2.58;;
19113;SDS011;9689;51.052;13.772;2023-11-19T17:56:52;15.70;;;2.97;;
19113;SDS011;9689;51.052;13.772;2023-11-19T18:01:53;11.95;;;2.30;;
19113;SDS011;9689;51.052;13.772;2023-11-19T18:06:57;15.10;;;2.78;;
19113;SDS011;9689;51.052;13.772;2023-11-19T18:11:58;13.45;;;2.60;;
19113;SDS011;9689;51.052;13.772;2023-11-19T18:17:13;7.78;;;2.10;;
19113;SDS011;9689;51.052;13.772;2023-11-19T18:22:17;19.88;;;3.42;;
19113;SDS011;9689;51.052;13.772;2023-11-19T18:27:17;13.45;;;2.35;;
19113;SDS011;9689;51.052;13.772;2023-11-19T18:32:19;17.17;;;2.60;;
19113;SDS011;9689;51.052;13.772;2023-11-19T18:37:21;10.30;;;2.72;;
19113;SDS011;9689;51.052;13.772;2023-11-19T18:42:26;16.17;;;3.05;;
19113;SDS011;9689;51.052;13.772;2023-11-19T18:47:26;9.10;;;2.20;;
19113;SDS011;9689;51.052;13.772;2023-11-19T18:52:29;24.83;;;2.58;;
19113;SDS011;9689;51.052;13.772;2023-11-19T18:57:31;17.05;;;2.58;;
19113;SDS011;9689;51.052;13.772;2023-11-19T19:02:32;11.15;;;2.08;;
19113;SDS011;9689;51.052;13.772;2023-11-19T19:07:34;10.68;;;2.83;;
19113;SDS011;9689;51.052;13.772;2023-11-19T19:12:35;13.18;;;2.45;;
19113;SDS011;9689;51.052;13.772;2023-11-19T19:17:38;15.02;;;2.30;;
19113;SDS011;9689;51.052;13.772;2023-11-19T19:22:41;16.85;;;2.67;;
19113;SDS011;9689;51.052;13.772;2023-11-19T19:27:42;12.55;;;2.30;;
19113;SDS011;9689;51.052;13.772;2023-11-19T19:32:43;17.65;;;2.25;;
19113;SDS011;9689;51.052;13.772;2023-11-19T19:37:45;18.15;;;2.80;;
19113;SDS011;9689;51.052;13.772;2023-11-19T19:42:47;16.58;;;2.22;;
19113;SDS011;9689;51.052;13.772;2023-11-19T19:47:47;8.70;;;1.95;;
19113;SDS011;9689;51.052;13.772;2023-11-19T19:52:51;12.60;;;2.17;;
19113;SDS011;9689;51.052;13.772;2023-11-19T19:57:52;12.15;;;2.38;;
19113;SDS011;9689;51.052;13.772;2023-11-19T20:02:54;15.82;;;3.03;;
19113;SDS011;9689;51.052;13.772;2023-11-19T20:07:56;14.25;;;2.47;;
19113;SDS011;9689;51.052;13.772;2023-11-19T20:12:58;10.05;;;1.80;;
19113;SDS011;9689;51.052;13.772;2023-11-19T20:18:01;14.65;;;2.30;;
19113;SDS011;9689;51.052;13.772;2023-11-19T20:23:03;12.20;;;2.00;;
19113;SDS011;9689;51.052;13.772;2023-11-19T20:28:04;17.75;;;2.60;;
19113;SDS011;9689;51.052;13.772;2023-11-19T20:33:05;6.90;;;1.75;;
19113;SDS011;9689;51.052;13.772;2023-11-19T20:38:07;11.55;;;2.47;;
19113;SDS011;9689;51.052;13.772;2023-11-19T20:43:08;8.63;;;2.42;;
19113;SDS011;9689;51.052;13.772;2023-11-19T20:48:09;9.40;;;2.50;;
19113;SDS011;9689;51.052;13.772;2023-11-19T20:53:12;12.82;;;2.28;;
19113;SDS011;9689;51.052;13.772;2023-11-19T20:58:14;11.52;;;1.67;;
19113;SDS011;9689;51.052;13.772;2023-11-19T21:03:15;8.95;;;1.98;;
19113;SDS011;9689;51.052;13.772;2023-11-19T21:08:19;9.60;;;2.25;;
19113;SDS011;9689;51.052;13.772;2023-11-19T21:13:19;9.82;;;1.80;;
19113;SDS011;9689;51.052;13.772;2023-11-19T21:18:21;11.98;;;2.38;;
19113;SDS011;9689;51.052;13.772;2023-11-19T21:23:23;6.93;;;2.35;;
19113;SDS011;9689;51.052;13.772;2023-11-19T21:28:24;16.08;;;2.08;;
19113;SDS011;9689;51.052;13.772;2023-11-19T21:33:26;11.35;;;1.95;;
19113;SDS011;9689;51.052;13.772;2023-11-19T21:38:28;12.00;;;2.13;;
19113;SDS011;9689;51.052;13.772;2023-11-19T21:43:31;10.05;;;1.70;;
19113;SDS011;9689;51.052;13.772;2023-11-19T21:48:32;13.10;;;2.10;;
19113;SDS011;9689;51.052;13.772;2023-11-19T21:53:34;9.68;;;2.20;;
19113;SDS011;9689;51.052;13.772;2023-11-19T21:58:37;10.55;;;1.40;;
19113;SDS011;9689;51.052;13.772;2023-11-19T22:03:39;10.63;;;1.70;;
19113;SDS011;9689;51.052;13.772;2023-11-19T22:08:41;11.30;;;1.80;;
19113;SDS011;9689;51.052;13.772;2023-11-19T22:13:42;12.43;;;2.22;;
19113;SDS011;9689;51.052;13.772;2023-11-19T22:18:43;9.27;;;1.55;;
19113;SDS011;9689;51.052;13.772;2023-11-19T22:23:45;8.25;;;1.77;;
19113;SDS011;9689;51.052;13.772;2023-11-19T22:28:46;12.30;;;2.08;;
19113;SDS011;9689;51.052;13.772;2023-11-19T22:33:47;12.02;;;2.28;;
19113;SDS011;9689;51.052;13.772;2023-11-19T22:38:49;6.40;;;1.83;;
19113;SDS011;9689;51.052;13.772;2023-11-19T22:43:50;9.20;;;1.88;;
19113;SDS011;9689;51.052;13.772;2023-11-19T22:48:51;11.25;;;1.83;;
19113;SDS011;9689;51.052;13.772;2023-11-19T22:53:54;10.32;;;2.10;;
19113;SDS011;9689;51.052;13.772;2023-11-19T22:58:55;15.95;;;2.67;;
19113;SDS011;9689;51.052;13.772;2023-11-19T23:03:56;15.73;;;2.20;;
19113;SDS011;9689;51.052;13.772;2023-11-19T23:08:58;14.15;;;2.08;;
19113;SDS011;9689;51.052;13.772;2023-11-19T23:14:01;7.95;;;1.65;;
19113;SDS011;9689;51.052;13.772;2023-11-19T23:19:02;9.30;;;1.60;;
19113;SDS011;9689;51.052;13.772;2023-11-19T23:24:04;11.02;;;2.15;;
19113;SDS011;9689;51.052;13.772;2023-11-19T23:29:06;14.75;;;2.33;;
19113;SDS011;9689;51.052;13.772;2023-11-19T23:34:14;9.45;;;1.55;;
19113;SDS011;9689;51.052;13.772;2023-11-19T23:39:16;10.35;;;2.03;;
19113;SDS011;9689;51.052;13.772;2023-11-19T23:44:18;11.68;;;2.92;;
19113;SDS011;9689;51.052;13.772;2023-11-19T23:49:19;16.52;;;1.92;;
19113;SDS011;9689;51.052;13.772;2023-11-19T23:54:23;8.80;;;1.70;;
19113;SDS011;9689;51.052;13.772;2023-11-19T23:59:24;14.35;;;2.20;;
